createdAt,value
2022-09-28T00:01:06.765Z,76.22
2022-09-28T00:03:34.718Z,76.25
2022-09-28T00:06:03.633Z,104.50
2022-09-28T00:08:31.555Z,54.88
2022-09-28T00:10:59.737Z,82.38
2022-09-28T00:13:28.307Z,101.43
2022-09-28T00:16:06.299Z,102.28
2022-09-28T00:18:36.094Z,87.30
2022-09-28T00:21:05.785Z,81.45
2022-09-28T00:23:34.749Z,64.30
2022-09-28T00:26:06.482Z,78.75
2022-09-28T00:28:34.439Z,84.18
2022-09-28T00:31:09.601Z,77.95
2022-09-28T00:33:37.808Z,92.43
2022-09-28T00:36:05.700Z,90.95
2022-09-28T00:38:33.548Z,86.45
2022-09-28T00:41:01.582Z,69.30
2022-09-28T00:43:29.493Z,52.00
2022-09-28T00:46:00.769Z,48.15
2022-09-28T00:48:34.194Z,49.55
2022-09-28T00:51:05.893Z,44.65
2022-09-28T00:53:35.936Z,52.33
2022-09-28T00:56:07.541Z,30.35
2022-09-28T00:58:39.508Z,28.15
2022-09-28T01:01:07.551Z,4.68
2022-09-28T01:03:37.125Z,5.95
2022-09-28T01:06:06.600Z,4.43
2022-09-28T01:08:35.158Z,2.67
2022-09-28T01:11:03.794Z,2.75
2022-09-28T01:13:32.503Z,3.28
2022-09-28T01:16:08.195Z,4.72
2022-09-28T01:18:43.719Z,17.70
2022-09-28T01:21:13.937Z,3.13
2022-09-28T01:24:01.608Z,7.95
2022-09-28T01:26:59.494Z,8.73
2022-09-28T01:29:35.482Z,16.02
2022-09-28T01:32:12.143Z,21.13
2022-09-28T01:34:44.009Z,26.42
2022-09-28T01:37:12.892Z,53.65
2022-09-28T01:39:43.616Z,98.72
2022-09-28T01:42:16.261Z,93.07
2022-09-28T01:44:47.581Z,76.85
2022-09-28T01:47:16.788Z,80.55
2022-09-28T01:49:47.387Z,59.22
2022-09-28T01:52:19.486Z,95.13
2022-09-28T01:54:51.846Z,87.78
2022-09-28T01:57:24.573Z,50.00
2022-09-28T01:59:57.199Z,70.30
2022-09-28T02:02:29.595Z,82.65
2022-09-28T02:05:00.187Z,51.53
2022-09-28T02:07:32.873Z,55.30
2022-09-28T02:10:04.138Z,94.68
2022-09-28T02:12:36.010Z,73.30
2022-09-28T02:15:12.756Z,70.63
2022-09-28T02:17:41.601Z,85.45
2022-09-28T02:20:10.331Z,52.22
2022-09-28T02:22:43.048Z,22.17
2022-09-28T02:25:13.037Z,7.40
2022-09-28T02:27:46.474Z,7.38
2022-09-28T02:30:14.723Z,62.97
2022-09-28T02:32:46.795Z,8.68
2022-09-28T02:35:16.841Z,4.85
2022-09-28T02:37:44.950Z,7.65
2022-09-28T02:40:17.009Z,27.63
2022-09-28T02:42:54.212Z,20.80
2022-09-28T02:45:32.234Z,12.73
2022-09-28T02:48:09.316Z,11.45
2022-09-28T02:50:43.198Z,5.22
2022-09-28T02:53:28.968Z,12.95
2022-09-28T02:56:09.178Z,22.10
2022-09-28T02:58:47.841Z,49.60
2022-09-28T03:01:22.045Z,31.05
2022-09-28T03:03:52.305Z,43.33
2022-09-28T03:06:24.307Z,18.77
2022-09-28T03:08:58.524Z,20.08
2022-09-28T03:11:30.070Z,6.20
2022-09-28T03:13:59.452Z,14.45
2022-09-28T03:16:28.471Z,6.20
2022-09-28T03:18:56.549Z,6.72
2022-09-28T03:21:24.371Z,15.98
2022-09-28T03:23:52.244Z,7.20
2022-09-28T03:26:20.255Z,5.40
2022-09-28T03:28:48.167Z,11.57
2022-09-28T03:31:17.368Z,17.52
2022-09-28T03:33:45.679Z,67.22
2022-09-28T03:36:15.059Z,60.72
2022-09-28T03:38:42.891Z,88.05
2022-09-28T03:41:10.873Z,82.22
2022-09-28T03:43:38.765Z,70.03
2022-09-28T03:46:07.003Z,71.93
2022-09-28T03:48:37.410Z,71.15
2022-09-28T03:51:09.290Z,89.13
2022-09-28T03:53:37.471Z,72.97
2022-09-28T03:56:06.853Z,58.00
2022-09-28T03:58:35.084Z,38.65
2022-09-28T04:01:04.505Z,29.40
2022-09-28T04:03:32.700Z,35.67
2022-09-28T04:06:02.310Z,87.88
2022-09-28T04:08:30.133Z,72.25
2022-09-28T04:10:58.636Z,100.32
2022-09-28T04:13:26.448Z,83.95
2022-09-28T04:15:54.917Z,81.35
2022-09-28T04:18:23.041Z,93.45
2022-09-28T04:21:03.575Z,76.90
2022-09-28T04:23:31.881Z,99.53
2022-09-28T04:26:00.660Z,43.17
2022-09-28T04:28:46.097Z,86.75
2022-09-28T04:31:16.298Z,44.92
2022-09-28T04:33:44.702Z,55.90
2022-09-28T04:36:14.245Z,53.45
2022-09-28T04:38:52.844Z,29.73
2022-09-28T04:41:22.529Z,48.92
2022-09-28T04:43:50.980Z,92.57
2022-09-28T04:46:19.044Z,95.72
2022-09-28T04:48:46.962Z,90.30
2022-09-28T04:51:16.252Z,93.85
2022-09-28T04:53:44.292Z,84.78
2022-09-28T04:56:13.979Z,78.03
2022-09-28T04:58:42.402Z,70.78
2022-09-28T05:01:13.361Z,66.10
2022-09-28T05:03:41.432Z,51.00
2022-09-28T05:06:09.809Z,59.20
2022-09-28T05:08:39.243Z,44.60
2022-09-28T05:11:08.294Z,34.40
2022-09-28T05:13:41.927Z,52.65
2022-09-28T05:16:12.915Z,66.97
2022-09-28T05:18:41.175Z,59.72
2022-09-28T05:21:12.752Z,55.55
2022-09-28T05:23:42.524Z,24.80
2022-09-28T05:26:10.544Z,17.13
2022-09-28T05:28:38.342Z,8.88
2022-09-28T05:31:06.839Z,14.95
2022-09-28T05:33:35.150Z,16.10
2022-09-28T05:36:03.613Z,20.02
2022-09-28T05:38:31.709Z,34.10
2022-09-28T05:41:05.688Z,20.05
2022-09-28T05:43:34.503Z,29.42
2022-09-28T05:46:02.427Z,4.50
2022-09-28T05:48:30.510Z,4.50
2022-09-28T05:50:59.694Z,4.15
2022-09-28T05:53:27.813Z,4.88
2022-09-28T05:56:00.498Z,4.60
2022-09-28T05:58:29.222Z,4.32
2022-09-28T06:00:57.469Z,6.80
2022-09-28T06:03:26.149Z,5.07
2022-09-28T06:05:54.014Z,3.88
2022-09-28T06:08:22.089Z,6.18
2022-09-28T06:10:50.008Z,7.30
2022-09-28T06:13:19.328Z,5.50
2022-09-28T06:15:47.421Z,4.57
2022-09-28T06:18:15.579Z,5.10
2022-09-28T06:20:43.512Z,3.92
2022-09-28T06:23:11.787Z,5.70
2022-09-28T06:25:40.128Z,7.28
2022-09-28T06:28:10.355Z,6.45
2022-09-28T06:30:39.903Z,6.72
2022-09-28T06:33:09.618Z,7.22
2022-09-28T06:35:37.829Z,4.93
2022-09-28T06:38:05.881Z,6.20
2022-09-28T06:40:34.966Z,5.43
2022-09-28T06:43:04.804Z,8.95
2022-09-28T06:45:32.841Z,6.55
2022-09-28T06:48:02.983Z,4.95
2022-09-28T06:50:32.447Z,5.47
2022-09-28T06:53:00.774Z,7.43
2022-09-28T06:55:29.399Z,6.97
2022-09-28T06:58:00.540Z,5.60
2022-09-28T07:00:28.676Z,11.77
2022-09-28T07:02:56.605Z,9.75
2022-09-28T07:05:26.943Z,22.75
2022-09-28T07:07:56.317Z,33.50
2022-09-28T07:10:24.676Z,25.38
2022-09-28T07:12:53.056Z,8.73
2022-09-28T07:15:22.858Z,8.45
2022-09-28T07:18:00.350Z,20.15
2022-09-28T07:20:31.428Z,12.27
2022-09-28T07:23:13.277Z,7.35
2022-09-28T07:25:48.049Z,10.05
2022-09-28T07:28:16.322Z,12.20
2022-09-28T07:30:44.974Z,13.60
2022-09-28T07:33:14.610Z,25.38
2022-09-28T07:35:51.766Z,38.03
2022-09-28T07:38:20.049Z,21.13
2022-09-28T07:41:05.557Z,28.63
2022-09-28T07:43:33.812Z,23.52
2022-09-28T07:46:01.743Z,32.70
2022-09-28T07:48:37.900Z,27.30
2022-09-28T07:51:08.364Z,18.38
2022-09-28T07:53:38.243Z,12.57
2022-09-28T07:56:08.851Z,11.30
2022-09-28T07:58:38.052Z,11.57
2022-09-28T08:01:07.959Z,11.48
2022-09-28T08:03:36.533Z,11.80
2022-09-28T08:06:07.027Z,21.80
2022-09-28T08:08:36.468Z,33.47
2022-09-28T08:11:04.356Z,31.90
2022-09-28T08:13:32.328Z,26.00
2022-09-28T08:16:02.837Z,25.42
2022-09-28T08:18:30.981Z,46.38
2022-09-28T08:21:16.146Z,75.80
2022-09-28T08:23:45.308Z,57.55
2022-09-28T08:26:15.563Z,63.95
2022-09-28T08:28:45.165Z,75.05
2022-09-28T08:31:13.412Z,42.22
2022-09-28T08:33:42.175Z,43.05
2022-09-28T08:36:11.022Z,49.08
2022-09-28T08:38:38.839Z,58.30
2022-09-28T08:41:24.769Z,54.85
2022-09-28T08:44:12.040Z,28.52
2022-09-28T08:46:42.994Z,32.97
2022-09-28T08:49:24.883Z,47.45
2022-09-28T08:51:57.241Z,56.70
2022-09-28T08:54:31.269Z,39.55
2022-09-28T08:57:04.839Z,57.03
2022-09-28T08:59:39.467Z,24.13
2022-09-28T09:02:16.233Z,11.35
2022-09-28T09:04:45.163Z,12.05
2022-09-28T09:07:23.467Z,14.13
2022-09-28T09:10:00.426Z,14.27
2022-09-28T09:12:39.105Z,10.05
2022-09-28T09:15:35.280Z,21.63
2022-09-28T09:18:19.274Z,22.80
2022-09-28T09:20:52.695Z,26.55
2022-09-28T09:23:26.440Z,14.48
2022-09-28T09:25:58.392Z,15.05
2022-09-28T09:28:50.839Z,10.43
2022-09-28T09:31:31.446Z,13.13
2022-09-28T09:34:22.022Z,13.80
2022-09-28T09:37:17.969Z,18.15
2022-09-28T09:40:00.566Z,18.23
2022-09-28T09:42:41.593Z,43.33
2022-09-28T09:45:22.917Z,23.35
2022-09-28T09:47:53.589Z,23.38
2022-09-28T09:50:29.741Z,37.95
2022-09-28T09:53:00.047Z,74.70
2022-09-28T09:55:33.011Z,83.43
2022-09-28T09:58:06.150Z,83.47
2022-09-28T10:00:36.016Z,69.57
2022-09-28T10:03:03.974Z,49.58
2022-09-28T10:05:34.534Z,27.38
2022-09-28T10:08:05.148Z,14.13
2022-09-28T10:10:35.976Z,13.02
2022-09-28T10:13:04.783Z,10.20
2022-09-28T10:15:33.674Z,10.40
2022-09-28T10:18:06.757Z,12.10
2022-09-28T10:20:36.319Z,31.52
2022-09-28T10:23:05.436Z,25.63
2022-09-28T10:25:35.167Z,38.47
2022-09-28T10:28:06.377Z,26.58
2022-09-28T10:30:44.629Z,32.03
2022-09-28T10:33:32.233Z,43.65
2022-09-28T10:36:00.989Z,40.83
2022-09-28T10:38:30.121Z,36.35
2022-09-28T10:41:01.124Z,40.00
2022-09-28T10:43:31.555Z,24.67
2022-09-28T10:46:03.509Z,19.23
2022-09-28T10:48:40.062Z,26.77
2022-09-28T10:51:09.374Z,25.88
2022-09-28T10:53:38.381Z,49.20
2022-09-28T10:56:08.865Z,43.60
2022-09-28T10:58:39.601Z,23.70
2022-09-28T11:01:10.937Z,15.30
2022-09-28T11:03:51.719Z,31.00
2022-09-28T11:06:25.521Z,81.53
2022-09-28T11:08:54.168Z,22.55
2022-09-28T11:11:22.315Z,19.65
2022-09-28T11:13:51.998Z,11.38
2022-09-28T11:16:22.425Z,33.67
2022-09-28T11:18:51.743Z,19.10
2022-09-28T11:21:23.789Z,13.35
2022-09-28T11:24:06.010Z,8.05
2022-09-28T11:26:42.179Z,11.32
2022-09-28T11:29:21.884Z,29.15
2022-09-28T11:31:51.359Z,29.95
2022-09-28T11:34:41.519Z,14.70
2022-09-28T11:37:31.941Z,42.13
2022-09-28T11:40:08.394Z,61.00
2022-09-28T11:42:45.671Z,65.88
2022-09-28T11:45:31.946Z,40.92
2022-09-28T11:48:02.173Z,31.10
2022-09-28T11:50:39.773Z,36.05
2022-09-28T11:53:17.421Z,42.50
2022-09-28T11:55:48.716Z,44.95
2022-09-28T11:58:22.668Z,24.98
2022-09-28T12:00:54.388Z,28.02
2022-09-28T12:03:26.652Z,40.03
2022-09-28T12:05:58.545Z,23.38
2022-09-28T12:08:29.473Z,22.23
2022-09-28T12:11:01.013Z,12.48
2022-09-28T12:13:31.076Z,11.45
2022-09-28T12:16:27.710Z,7.00
2022-09-28T12:18:52.949Z,12.52
2022-09-28T12:21:32.755Z,9.07
2022-09-28T12:24:05.230Z,6.57
2022-09-28T12:26:38.002Z,9.75
2022-09-28T12:29:08.377Z,9.75
2022-09-28T12:31:40.430Z,16.40
2022-09-28T12:34:10.195Z,11.05
2022-09-28T12:36:51.945Z,15.80
2022-09-28T12:39:46.748Z,23.55
2022-09-28T12:42:34.382Z,32.17
2022-09-28T12:45:17.552Z,19.13
2022-09-28T12:48:04.576Z,18.02
2022-09-28T12:50:41.080Z,53.45
2022-09-28T12:53:27.435Z,48.33
2022-09-28T12:55:59.388Z,34.50
2022-09-28T12:58:42.106Z,36.08
2022-09-28T13:01:23.149Z,26.50
2022-09-28T13:04:11.412Z,21.15
2022-09-28T13:06:58.394Z,23.17
2022-09-28T13:09:29.027Z,12.40
2022-09-28T13:12:06.205Z,38.53
2022-09-28T13:15:10.157Z,19.45
2022-09-28T13:17:44.285Z,43.58
2022-09-28T13:20:23.553Z,62.72
2022-09-28T13:22:55.619Z,62.25
2022-09-28T13:25:27.252Z,81.05
2022-09-28T13:27:57.886Z,101.90
2022-09-28T13:30:26.844Z,114.93
2022-09-28T13:32:57.898Z,100.40
2022-09-28T13:35:26.144Z,103.72
2022-09-28T13:38:27.477Z,89.47
2022-09-28T13:41:13.968Z,93.63
2022-09-28T13:44:02.490Z,102.65
2022-09-28T13:46:37.279Z,128.27
2022-09-28T13:49:12.401Z,124.32
2022-09-28T13:51:48.060Z,83.43
2022-09-28T13:54:25.871Z,85.35
2022-09-28T13:57:01.511Z,84.82
2022-09-28T13:59:30.980Z,70.18
2022-09-28T14:02:06.831Z,68.57
2022-09-28T14:04:56.429Z,80.03
2022-09-28T14:10:19.016Z,5.15
2022-09-28T14:12:49.888Z,5.45
2022-09-28T14:15:47.307Z,4.07
2022-09-28T14:18:24.579Z,4.35
2022-09-28T14:21:12.669Z,5.93
2022-09-28T14:23:50.932Z,6.38
2022-09-28T14:26:47.285Z,6.82
2022-09-28T14:29:28.482Z,10.13
2022-09-28T14:31:58.300Z,8.20
2022-09-28T14:34:35.702Z,8.45
2022-09-28T14:37:23.080Z,12.75
2022-09-28T14:40:09.244Z,4.85
2022-09-28T14:42:37.139Z,4.25
2022-09-28T14:45:35.982Z,8.32
2022-09-28T14:48:15.623Z,6.53
2022-09-28T14:50:43.690Z,13.32
2022-09-28T14:53:13.534Z,6.65
2022-09-28T14:55:50.498Z,152.80
2022-09-28T14:58:23.813Z,173.18
2022-09-28T15:00:56.790Z,167.18
2022-09-28T15:03:26.185Z,170.65
2022-09-28T15:05:54.327Z,172.73
2022-09-28T15:08:23.022Z,181.10
2022-09-28T15:10:52.555Z,179.95
2022-09-28T15:13:23.356Z,171.00
2022-09-28T15:15:54.829Z,171.82
2022-09-28T15:18:51.990Z,177.60
2022-09-28T15:21:20.689Z,178.10
2022-09-28T15:23:49.693Z,172.10
2022-09-28T15:26:27.615Z,175.38
2022-09-28T15:28:56.312Z,175.55
2022-09-28T15:31:26.792Z,165.68
2022-09-28T15:34:12.532Z,165.45
2022-09-28T15:36:42.185Z,154.07
2022-09-28T15:39:15.162Z,158.95
2022-09-28T15:41:44.425Z,161.45
2022-09-28T15:44:30.506Z,156.48
2022-09-28T15:47:16.702Z,161.23
2022-09-28T15:49:57.154Z,161.48
2022-09-28T15:52:28.959Z,160.48
2022-09-28T15:54:56.929Z,146.88
2022-09-28T15:57:34.329Z,136.52
2022-09-28T16:00:02.945Z,144.52
2022-09-28T16:02:32.442Z,162.52
2022-09-28T16:05:01.772Z,167.32
2022-09-28T16:07:33.337Z,163.98
2022-09-28T16:10:04.760Z,168.63
2022-09-28T16:12:42.576Z,182.30
2022-09-28T16:15:18.257Z,177.02
2022-09-28T16:17:51.551Z,175.93
2022-09-28T16:20:27.743Z,164.80
2022-09-28T16:22:56.806Z,166.30
2022-09-28T16:25:27.408Z,162.02
2022-09-28T16:27:56.316Z,167.70
2022-09-28T16:30:27.421Z,172.35
2022-09-28T16:32:58.247Z,175.23
2022-09-28T16:35:31.388Z,180.63
2022-09-28T16:38:05.676Z,174.35
2022-09-28T16:40:34.184Z,164.40
2022-09-28T16:43:04.275Z,175.18
2022-09-28T16:45:32.862Z,178.02
2022-09-28T16:48:04.173Z,169.80
2022-09-28T16:50:32.192Z,166.57
2022-09-28T16:53:19.881Z,172.32
2022-09-28T16:55:48.205Z,174.32
2022-09-28T16:58:16.021Z,183.82
2022-09-28T17:00:45.724Z,178.55
2022-09-28T17:03:19.383Z,176.35
2022-09-28T17:05:48.047Z,173.32
2022-09-28T17:08:18.288Z,173.95
2022-09-28T17:11:12.999Z,181.68
2022-09-28T17:13:40.640Z,166.73
2022-09-28T17:16:12.762Z,170.60
2022-09-28T17:18:42.161Z,181.85
2022-09-28T17:21:14.998Z,177.82
2022-09-28T17:23:43.029Z,182.23
2022-09-28T17:26:19.051Z,183.50
2022-09-28T17:28:46.887Z,177.45
2022-09-28T17:31:16.662Z,179.90
2022-09-28T17:33:46.062Z,180.75
2022-09-28T17:36:15.525Z,190.27
2022-09-28T17:38:45.333Z,182.25
2022-09-28T17:41:18.057Z,183.25
2022-09-28T17:43:48.311Z,168.65
2022-09-28T17:46:26.911Z,172.57
2022-09-28T17:48:59.549Z,185.30
2022-09-28T17:51:28.469Z,179.20
2022-09-28T17:53:56.902Z,187.05
2022-09-28T17:56:29.670Z,181.82
2022-09-28T17:59:01.105Z,187.32
2022-09-28T18:01:34.150Z,195.43
2022-09-28T18:04:05.046Z,184.60
2022-09-28T18:06:33.918Z,174.38
2022-09-28T18:09:02.785Z,182.20
2022-09-28T18:11:30.968Z,184.75
2022-09-28T18:14:01.096Z,180.18
2022-09-28T18:16:29.332Z,181.23
2022-09-28T18:18:57.187Z,187.48
2022-09-28T18:21:26.373Z,170.40
2022-09-28T18:23:54.321Z,181.43
2022-09-28T18:26:22.142Z,187.52
2022-09-28T18:28:50.561Z,184.35
2022-09-28T18:31:19.118Z,177.88
2022-09-28T18:36:35.948Z,174.52
2022-09-28T18:39:05.414Z,174.05
2022-09-28T18:41:34.977Z,170.38
2022-09-28T18:44:02.985Z,170.65
2022-09-28T18:46:36.389Z,172.00
2022-09-28T18:49:05.236Z,150.80
2022-09-28T18:51:34.676Z,148.90
2022-09-28T18:54:06.750Z,146.07
2022-09-28T18:56:37.266Z,139.20
2022-09-28T18:59:21.005Z,145.85
2022-09-28T19:01:49.114Z,147.27
2022-09-28T19:04:17.607Z,141.52
2022-09-28T19:06:51.723Z,129.55
2022-09-28T19:09:21.212Z,140.35
2022-09-28T19:11:50.858Z,141.23
2022-09-28T19:14:19.764Z,130.77
2022-09-28T19:16:51.526Z,126.15
2022-09-28T19:19:21.103Z,120.30
2022-09-28T19:21:50.737Z,118.03
2022-09-28T19:24:19.983Z,117.38
2022-09-28T19:26:49.082Z,118.00
2022-09-28T19:29:17.967Z,117.25
2022-09-28T19:31:46.398Z,110.35
2022-09-28T19:34:15.253Z,100.68
2022-09-28T19:36:43.455Z,99.80
2022-09-28T19:39:15.759Z,114.32
2022-09-28T19:41:51.059Z,95.68
2022-09-28T19:44:24.711Z,88.97
2022-09-28T19:46:54.560Z,90.38
2022-09-28T19:49:23.405Z,74.07
2022-09-28T19:52:12.237Z,83.25
2022-09-28T19:54:44.581Z,103.78
2022-09-28T19:57:13.411Z,96.50
2022-09-28T19:59:41.187Z,100.93
2022-09-28T20:02:10.593Z,112.20
2022-09-28T20:04:38.616Z,112.20
2022-09-28T20:07:06.404Z,115.13
2022-09-28T20:09:34.276Z,116.72
2022-09-28T20:12:04.158Z,107.60
2022-09-28T20:14:36.548Z,104.55
2022-09-28T20:17:06.250Z,95.90
2022-09-28T20:19:35.023Z,88.35
2022-09-28T20:22:03.551Z,98.22
2022-09-28T20:24:31.757Z,94.45
2022-09-28T20:27:01.382Z,91.35
2022-09-28T20:29:33.210Z,84.60
2022-09-28T20:32:01.749Z,69.85
2022-09-28T20:34:29.570Z,75.07
2022-09-28T20:36:57.509Z,80.95
2022-09-28T20:39:25.354Z,77.82
2022-09-28T20:41:53.598Z,79.15
2022-09-28T20:44:21.660Z,70.75
2022-09-28T20:46:52.668Z,81.82
2022-09-28T20:49:20.799Z,83.15
2022-09-28T20:51:48.690Z,96.35
2022-09-28T20:54:16.762Z,92.57
2022-09-28T20:56:44.819Z,84.80
2022-09-28T20:59:13.524Z,110.20
2022-09-28T21:01:41.729Z,104.35
2022-09-28T21:04:11.588Z,104.53
2022-09-28T21:06:42.191Z,119.88
2022-09-28T21:09:12.351Z,114.93
2022-09-28T21:11:40.307Z,111.50
2022-09-28T21:14:12.292Z,113.80
2022-09-28T21:16:40.445Z,110.93
2022-09-28T21:19:08.307Z,112.40
2022-09-28T21:21:37.553Z,114.78
2022-09-28T21:24:05.750Z,122.50
2022-09-28T21:26:33.563Z,112.32
2022-09-28T21:29:03.155Z,118.80
2022-09-28T21:31:33.806Z,119.60
2022-09-28T21:34:01.863Z,114.28
2022-09-28T21:36:29.989Z,117.53
2022-09-28T21:38:59.581Z,115.90
2022-09-28T21:41:29.126Z,120.50
2022-09-28T21:43:58.856Z,124.32
2022-09-28T21:46:26.933Z,127.97
2022-09-28T21:48:54.905Z,128.27
2022-09-28T21:51:22.796Z,121.80
2022-09-28T21:53:50.786Z,126.30
2022-09-28T21:56:20.008Z,131.55
2022-09-28T21:58:48.122Z,128.75
2022-09-28T22:01:18.267Z,126.57
2022-09-28T22:03:48.172Z,120.47
2022-09-28T22:06:17.065Z,121.93
2022-09-28T22:08:45.562Z,125.88
2022-09-28T22:11:14.641Z,128.48
2022-09-28T22:13:45.334Z,128.07
2022-09-28T22:16:14.267Z,127.07
2022-09-28T22:18:42.447Z,133.20
2022-09-28T22:21:12.816Z,132.73
2022-09-28T22:23:41.250Z,147.20
2022-09-28T22:26:11.501Z,146.57
2022-09-28T22:28:40.413Z,143.45
2022-09-28T22:31:10.037Z,143.38
2022-09-28T22:33:38.293Z,140.52
2022-09-28T22:36:07.994Z,126.95
2022-09-28T22:38:36.324Z,133.30
2022-09-28T22:41:04.425Z,125.75
2022-09-28T22:43:33.442Z,140.98
2022-09-28T22:46:05.844Z,146.45
2022-09-28T22:48:35.371Z,144.32
2022-09-28T22:51:04.264Z,125.97
2022-09-28T22:53:32.101Z,135.43
2022-09-28T22:56:00.814Z,140.32
2022-09-28T22:58:29.245Z,147.38
2022-09-28T23:00:57.873Z,154.50
2022-09-28T23:03:25.877Z,147.65
2022-09-28T23:05:56.147Z,142.43
2022-09-28T23:08:24.767Z,151.52
2022-09-28T23:10:53.032Z,158.65
2022-09-28T23:13:20.916Z,154.85
2022-09-28T23:15:56.599Z,146.18
2022-09-28T23:18:24.646Z,150.45
2022-09-28T23:20:57.747Z,139.93
2022-09-28T23:23:26.043Z,149.93
2022-09-28T23:25:54.928Z,149.57
2022-09-28T23:28:24.322Z,136.73
2022-09-28T23:30:52.585Z,151.80
2022-09-28T23:33:21.705Z,144.75
2022-09-28T23:35:49.846Z,144.00
2022-09-28T23:38:19.564Z,149.25
2022-09-28T23:40:47.642Z,162.30
2022-09-28T23:43:15.864Z,168.73
2022-09-28T23:45:43.938Z,162.27
2022-09-28T23:48:15.091Z,163.65
2022-09-28T23:50:43.386Z,157.93
2022-09-28T23:53:11.835Z,161.35
2022-09-28T23:55:41.549Z,154.80
2022-09-28T23:58:09.881Z,152.85
